createdAt,value
2019-01-19T00:01:23.398Z,63.18
2019-01-19T00:04:22.161Z,63.17
2019-01-19T00:07:29.284Z,63.09
2019-01-19T00:10:36.279Z,62.81
2019-01-19T00:13:49.703Z,62.58
2019-01-19T00:17:03.935Z,62.68
2019-01-19T00:19:56.399Z,62.52
2019-01-19T00:22:56.360Z,62.24
2019-01-19T00:25:49.735Z,62.69
2019-01-19T00:28:31.484Z,62.70
2019-01-19T00:31:23.615Z,62.52
2019-01-19T00:34:40.291Z,62.60
2019-01-19T00:37:56.745Z,62.54
2019-01-19T00:40:57.373Z,62.73
2019-01-19T00:44:09.226Z,62.76
2019-01-19T00:47:28.979Z,62.96
2019-01-19T00:50:32.461Z,62.98
2019-01-19T00:53:40.482Z,62.77
2019-01-19T00:56:42.636Z,62.42
2019-01-19T00:59:17.463Z,62.36
2019-01-19T01:02:36.439Z,61.96
2019-01-19T01:05:11.714Z,62.55
2019-01-19T01:08:08.884Z,62.23
2019-01-19T01:11:16.049Z,62.10
2019-01-19T01:14:20.058Z,61.87
2019-01-19T01:17:21.036Z,62.17
2019-01-19T01:20:22.251Z,62.23
2019-01-19T01:23:26.324Z,61.87
2019-01-19T01:26:34.006Z,62.14
2019-01-19T01:29:48.020Z,62.09
2019-01-19T01:32:24.659Z,62.06
2019-01-19T01:35:42.122Z,61.95
2019-01-19T01:38:52.200Z,61.73
2019-01-19T01:42:13.676Z,61.63
2019-01-19T01:45:24.904Z,61.98
2019-01-19T01:48:26.329Z,61.91
2019-01-19T01:51:21.816Z,61.77
2019-01-19T01:54:33.210Z,61.54
2019-01-19T01:57:09.911Z,61.80
2019-01-19T02:00:26.231Z,62.05
2019-01-19T02:03:38.950Z,61.50
2019-01-19T02:06:27.367Z,61.53
2019-01-19T02:09:52.428Z,61.58
2019-01-19T02:12:53.262Z,61.22
2019-01-19T02:16:01.100Z,61.21
2019-01-19T02:18:56.105Z,61.17
2019-01-19T02:21:49.155Z,61.02
2019-01-19T02:24:50.234Z,60.83
2019-01-19T02:27:55.366Z,60.83
2019-01-19T02:30:49.142Z,60.82
2019-01-19T02:34:12.397Z,60.86
2019-01-19T02:37:23.691Z,60.91
2019-01-19T02:40:10.649Z,61.03
2019-01-19T02:43:23.905Z,61.56
2019-01-19T02:46:37.428Z,61.56
2019-01-19T02:49:41.625Z,61.01
2019-01-19T02:52:33.084Z,60.97
2019-01-19T02:55:39.299Z,61.05
2019-01-19T02:58:48.185Z,61.15
2019-01-19T03:01:55.460Z,61.17
2019-01-19T03:04:50.777Z,61.40
2019-01-19T03:07:45.571Z,61.40
2019-01-19T03:11:09.308Z,61.14
2019-01-19T03:14:08.258Z,61.14
2019-01-19T03:17:04.931Z,60.94
2019-01-19T03:20:37.913Z,61.10
2019-01-19T03:23:46.599Z,61.27
2019-01-19T03:27:00.254Z,61.05
2019-01-19T03:30:20.453Z,61.44
2019-01-19T03:33:28.133Z,61.55
2019-01-19T03:36:40.629Z,61.54
2019-01-19T03:39:50.228Z,61.57
2019-01-19T03:42:56.115Z,61.94
2019-01-19T03:46:09.507Z,61.84
2019-01-19T03:49:08.966Z,61.65
2019-01-19T03:51:49.916Z,61.70
2019-01-19T03:54:35.418Z,61.75
2019-01-19T03:57:32.149Z,61.69
2019-01-19T04:00:40.175Z,61.74
2019-01-19T04:03:45.938Z,61.88
2019-01-19T04:06:49.407Z,61.87
2019-01-19T04:10:17.301Z,61.98
2019-01-19T04:13:46.759Z,61.94
2019-01-19T04:16:47.357Z,61.94
2019-01-19T04:19:52.984Z,62.19
2019-01-19T04:22:48.248Z,62.10
2019-01-19T04:25:28.638Z,62.53
2019-01-19T04:28:00.565Z,62.53
2019-01-19T04:30:30.842Z,62.39
2019-01-19T04:33:01.101Z,62.58
2019-01-19T04:35:31.364Z,62.58
2019-01-19T04:38:01.630Z,62.64
2019-01-19T04:40:31.878Z,62.58
2019-01-19T04:43:02.145Z,62.86
2019-01-19T04:45:32.415Z,62.83
2019-01-19T04:48:02.651Z,62.86
2019-01-19T04:50:32.873Z,62.70
2019-01-19T04:53:03.142Z,63.26
2019-01-19T04:55:33.435Z,63.01
2019-01-19T04:58:03.683Z,62.77
2019-01-19T05:00:33.925Z,62.93
2019-01-19T05:03:04.269Z,63.31
2019-01-19T05:05:34.529Z,63.31
2019-01-19T05:08:04.767Z,63.13
2019-01-19T05:10:35.027Z,63.33
2019-01-19T05:13:05.271Z,63.15
2019-01-19T05:15:35.545Z,63.33
2019-01-19T05:18:06.395Z,63.49
2019-01-19T05:20:39.546Z,63.47
2019-01-19T05:23:10.804Z,63.62
2019-01-19T05:25:41.171Z,63.36
2019-01-19T05:28:11.505Z,63.59
2019-01-19T05:30:41.710Z,63.55
2019-01-19T05:33:11.976Z,63.71
2019-01-19T05:35:42.212Z,63.91
2019-01-19T05:38:12.477Z,64.06
2019-01-19T05:40:42.841Z,63.97
2019-01-19T05:43:13.328Z,64.13
2019-01-19T05:45:43.589Z,64.17
2019-01-19T05:48:13.859Z,64.15
2019-01-19T05:50:44.191Z,64.23
2019-01-19T05:53:14.931Z,64.16
2019-01-19T05:55:45.184Z,64.16
2019-01-19T05:58:15.459Z,64.06
2019-01-19T06:00:45.744Z,64.14
2019-01-19T06:03:16.005Z,64.10
2019-01-19T06:05:46.571Z,64.10
2019-01-19T06:08:19.864Z,64.43
2019-01-19T06:10:51.172Z,64.43
2019-01-19T06:13:21.452Z,64.28
2019-01-19T06:15:51.723Z,64.22
2019-01-19T06:18:21.982Z,64.22
2019-01-19T06:20:52.883Z,64.21
2019-01-19T06:23:23.155Z,64.83
2019-01-19T06:25:53.450Z,64.76
2019-01-19T06:28:23.678Z,64.45
2019-01-19T06:30:53.970Z,64.44
2019-01-19T06:33:24.285Z,64.60
2019-01-19T06:35:54.545Z,64.39
2019-01-19T06:38:24.814Z,64.32
2019-01-19T06:40:55.094Z,64.43
2019-01-19T06:43:25.373Z,64.33
2019-01-19T06:45:55.706Z,64.33
2019-01-19T06:48:25.988Z,64.23
2019-01-19T06:50:56.254Z,64.27
2019-01-19T06:53:26.572Z,64.38
2019-01-19T06:55:56.871Z,64.32
2019-01-19T06:58:27.124Z,64.00
2019-01-19T07:00:57.457Z,64.33
2019-01-19T07:03:27.708Z,64.45
2019-01-19T07:05:57.984Z,64.35
2019-01-19T07:08:28.245Z,64.67
2019-01-19T07:10:58.583Z,64.67
2019-01-19T07:13:28.867Z,64.78
2019-01-19T07:15:58.132Z,64.72
2019-01-19T07:18:27.252Z,64.54
2019-01-19T07:20:56.380Z,64.42
2019-01-19T07:23:25.524Z,64.46
2019-01-19T07:25:55.665Z,64.15
2019-01-19T07:28:25.963Z,64.84
2019-01-19T07:30:56.290Z,64.73
2019-01-19T07:33:26.605Z,64.65
2019-01-19T07:35:56.886Z,64.01
2019-01-19T07:38:27.167Z,64.42
2019-01-19T07:40:57.513Z,64.13
2019-01-19T07:43:28.237Z,63.61
2019-01-19T07:45:58.567Z,63.51
2019-01-19T07:48:28.846Z,63.51
2019-01-19T07:50:59.118Z,63.41
2019-01-19T07:53:29.442Z,63.14
2019-01-19T07:55:59.710Z,62.91
2019-01-19T07:58:29.955Z,62.85
2019-01-19T08:01:00.258Z,63.38
2019-01-19T08:03:30.574Z,63.20
2019-01-19T08:06:00.944Z,63.22
2019-01-19T08:08:31.254Z,63.55
2019-01-19T08:11:01.596Z,63.24
2019-01-19T08:13:31.903Z,63.05
2019-01-19T08:16:02.280Z,63.05
2019-01-19T08:18:33.550Z,62.81
2019-01-19T08:21:03.863Z,62.37
2019-01-19T08:23:34.197Z,62.58
2019-01-19T08:26:04.564Z,62.24
2019-01-19T08:28:34.855Z,62.08
2019-01-19T08:31:05.279Z,62.36
2019-01-19T08:33:35.594Z,62.60
2019-01-19T08:36:06.420Z,61.58
2019-01-19T08:38:36.761Z,61.34
2019-01-19T08:41:07.074Z,61.34
2019-01-19T08:43:43.459Z,60.73
2019-01-19T08:46:13.751Z,60.73
2019-01-19T08:48:44.095Z,60.88
2019-01-19T08:51:14.470Z,61.20
2019-01-19T08:53:44.999Z,61.34
2019-01-19T08:56:15.302Z,60.57
2019-01-19T08:58:45.598Z,60.81
2019-01-19T09:01:15.884Z,60.36
2019-01-19T09:03:46.390Z,60.08
2019-01-19T09:06:16.669Z,59.91
2019-01-19T09:08:47.106Z,60.05
2019-01-19T09:11:17.399Z,60.05
2019-01-19T09:13:47.650Z,60.39
2019-01-19T09:16:20.599Z,60.21
2019-01-19T09:18:51.010Z,60.88
2019-01-19T09:21:22.471Z,60.88
2019-01-19T09:24:04.807Z,60.14
2019-01-19T09:26:35.126Z,60.53
2019-01-19T09:29:05.423Z,60.25
2019-01-19T09:31:35.705Z,60.09
2019-01-19T09:34:05.999Z,59.92
2019-01-19T09:36:36.395Z,60.67
2019-01-19T09:39:10.773Z,60.86
2019-01-19T09:41:42.472Z,60.54
2019-01-19T09:44:12.879Z,59.84
2019-01-19T09:46:43.365Z,59.65
2019-01-19T09:49:13.686Z,59.65
2019-01-19T09:51:44.021Z,59.51
2019-01-19T09:54:14.335Z,59.29
2019-01-19T09:56:44.675Z,59.08
2019-01-19T09:59:14.936Z,58.67
2019-01-19T10:01:46.591Z,58.59
2019-01-19T10:04:16.883Z,58.26
2019-01-19T10:06:48.237Z,58.98
2019-01-19T10:09:18.624Z,58.56
2019-01-19T10:11:48.881Z,57.57
2019-01-19T10:14:19.216Z,57.20
2019-01-19T10:16:49.746Z,58.00
2019-01-19T10:19:20.065Z,58.36
2019-01-19T10:21:50.445Z,57.80
2019-01-19T10:24:20.765Z,58.23
2019-01-19T10:26:51.139Z,57.48
2019-01-19T10:29:21.562Z,56.85
2019-01-19T10:31:51.817Z,56.82
2019-01-19T10:34:22.096Z,56.34
2019-01-19T10:36:52.391Z,56.07
2019-01-19T10:39:22.675Z,56.10
2019-01-19T10:41:52.957Z,55.03
2019-01-19T10:44:23.265Z,53.95
2019-01-19T10:46:53.584Z,54.42
2019-01-19T10:49:23.928Z,54.50
2019-01-19T10:51:59.364Z,54.66
2019-01-19T10:54:26.201Z,54.93
2019-01-19T10:56:56.551Z,53.26
2019-01-19T10:59:26.821Z,54.37
2019-01-19T11:01:57.094Z,54.21
2019-01-19T11:04:27.396Z,54.46
2019-01-19T11:06:57.802Z,53.66
2019-01-19T11:09:28.118Z,52.54
2019-01-19T11:11:58.413Z,51.87
2019-01-19T11:14:28.775Z,50.36
2019-01-19T11:17:17.980Z,50.01
2019-01-19T11:19:49.051Z,49.09
2019-01-19T11:22:19.309Z,48.41
2019-01-19T11:24:49.814Z,47.70
2019-01-19T11:27:20.067Z,47.70
2019-01-19T11:29:50.656Z,47.27
2019-01-19T11:32:20.930Z,46.12
2019-01-19T11:34:51.288Z,45.57
2019-01-19T11:37:21.551Z,44.53
2019-01-19T11:39:51.954Z,42.61
2019-01-19T11:42:22.215Z,42.18
2019-01-19T11:44:52.487Z,43.22
2019-01-19T11:47:22.809Z,42.78
2019-01-19T11:49:53.162Z,42.00
2019-01-19T11:52:24.998Z,42.27
2019-01-19T11:54:55.268Z,41.53
2019-01-19T11:57:26.519Z,41.03
2019-01-19T11:59:56.825Z,41.51
2019-01-19T12:02:27.126Z,41.31
2019-01-19T12:04:57.437Z,40.92
2019-01-19T12:07:27.770Z,38.10
2019-01-19T12:09:58.046Z,39.05
2019-01-19T12:12:28.475Z,40.02
2019-01-19T12:14:58.827Z,38.90
2019-01-19T12:17:29.161Z,39.84
2019-01-19T12:19:59.443Z,39.46
2019-01-19T12:22:29.702Z,39.09
2019-01-19T12:25:00.034Z,39.74
2019-01-19T12:27:30.302Z,40.22
2019-01-19T12:30:00.597Z,39.74
2019-01-19T12:32:31.100Z,40.34
2019-01-19T12:35:01.524Z,39.58
2019-01-19T12:37:31.943Z,40.07
2019-01-19T12:40:02.246Z,40.06
2019-01-19T12:42:32.565Z,39.39
2019-01-19T12:45:02.859Z,38.14
2019-01-19T12:47:33.242Z,37.02
2019-01-19T12:50:04.437Z,37.87
2019-01-19T12:52:34.723Z,38.44
2019-01-19T12:55:05.380Z,38.34
2019-01-19T12:57:35.653Z,37.93
2019-01-19T13:00:06.852Z,38.89
2019-01-19T13:02:37.143Z,38.80
2019-01-19T13:05:14.936Z,38.82
2019-01-19T13:07:45.341Z,39.55
2019-01-19T13:10:25.526Z,38.95
2019-01-19T13:13:03.062Z,38.05
2019-01-19T13:16:29.744Z,38.00
2019-01-19T13:19:15.007Z,38.22
2019-01-19T13:22:40.495Z,38.07
2019-01-19T13:25:52.029Z,38.46
2019-01-19T13:28:52.560Z,38.16
2019-01-19T13:31:45.813Z,37.31
2019-01-19T13:35:03.141Z,38.90
2019-01-19T13:38:20.829Z,39.37
2019-01-19T13:41:42.848Z,38.76
2019-01-19T13:44:39.995Z,38.44
2019-01-19T13:47:58.617Z,39.34
2019-01-19T13:51:02.015Z,40.40
2019-01-19T13:54:12.805Z,41.81
2019-01-19T13:57:11.779Z,43.56
2019-01-19T13:59:57.749Z,44.52
2019-01-19T14:03:15.020Z,45.72
2019-01-19T14:06:29.299Z,45.60
2019-01-19T14:09:36.762Z,45.72
2019-01-19T14:12:47.986Z,46.24
2019-01-19T14:15:24.028Z,46.51
2019-01-19T14:18:07.633Z,47.21
2019-01-19T14:21:21.807Z,47.51
2019-01-19T14:24:13.182Z,47.82
2019-01-19T14:27:10.343Z,47.34
2019-01-19T14:30:07.951Z,46.97
2019-01-19T14:33:14.072Z,47.61
2019-01-19T14:36:16.833Z,47.94
2019-01-19T14:39:17.608Z,48.49
2019-01-19T14:42:19.306Z,48.69
2019-01-19T14:45:22.720Z,48.31
2019-01-19T14:48:30.501Z,48.19
2019-01-19T14:51:28.315Z,48.93
2019-01-19T14:54:58.854Z,49.17
2019-01-19T14:57:48.269Z,48.87
2019-01-19T15:00:55.288Z,49.47
2019-01-19T15:04:05.388Z,49.54
2019-01-19T15:07:03.984Z,49.51
2019-01-19T15:10:21.588Z,49.67
2019-01-19T15:13:36.312Z,49.60
2019-01-19T15:16:29.142Z,49.78
2019-01-19T15:19:35.440Z,49.94
2019-01-19T15:22:40.670Z,49.84
2019-01-19T15:26:01.311Z,50.31
2019-01-19T15:29:12.830Z,49.36
2019-01-19T15:32:09.525Z,49.75
2019-01-19T15:35:15.978Z,49.74
2019-01-19T15:38:46.576Z,49.68
2019-01-19T15:42:06.029Z,49.22
2019-01-19T15:45:04.231Z,49.27
2019-01-19T15:48:18.084Z,49.76
2019-01-19T15:51:38.741Z,49.89
2019-01-19T15:55:02.172Z,49.69
2019-01-19T15:58:00.944Z,49.84
2019-01-19T16:03:55.273Z,50.06
2019-01-19T16:06:51.230Z,50.45
2019-01-19T16:10:16.712Z,50.45
2019-01-19T16:13:25.134Z,50.61
2019-01-19T16:16:41.269Z,50.72
2019-01-19T16:19:53.387Z,51.16
2019-01-19T16:22:54.370Z,51.79
2019-01-19T16:26:18.117Z,52.08
2019-01-19T16:29:25.197Z,52.40
2019-01-19T16:32:32.013Z,52.77
2019-01-19T16:35:30.056Z,52.79
2019-01-19T16:38:10.631Z,53.06
2019-01-19T16:41:24.933Z,53.26
2019-01-19T16:44:18.641Z,53.39
2019-01-19T16:47:15.209Z,53.56
2019-01-19T16:50:07.839Z,53.35
2019-01-19T16:53:06.393Z,53.85
2019-01-19T16:56:09.670Z,54.03
2019-01-19T16:59:19.772Z,54.33
2019-01-19T17:02:16.210Z,54.43
2019-01-19T17:05:24.094Z,54.58
2019-01-19T17:08:42.838Z,54.35
2019-01-19T17:12:00.302Z,54.72
2019-01-19T17:15:20.489Z,54.66
2019-01-19T17:18:26.807Z,54.80
2019-01-19T17:21:59.568Z,55.63
2019-01-19T17:25:22.391Z,55.08
2019-01-19T17:28:39.944Z,55.00
2019-01-19T17:31:53.318Z,55.61
2019-01-19T17:34:45.499Z,55.68
2019-01-19T17:37:39.106Z,55.67
2019-01-19T17:40:38.775Z,55.74
2019-01-19T17:43:41.761Z,55.98
2019-01-19T17:46:40.165Z,55.81
2019-01-19T17:49:50.218Z,55.40
2019-01-19T17:53:10.508Z,55.25
2019-01-19T17:56:11.487Z,55.09
2019-01-19T17:59:21.350Z,55.21
2019-01-19T18:02:44.852Z,55.27
2019-01-19T18:05:42.318Z,55.01
2019-01-19T18:08:46.057Z,55.20
2019-01-19T18:11:52.989Z,55.58
2019-01-19T18:14:55.839Z,55.63
2019-01-19T18:18:01.214Z,55.75
2019-01-19T18:21:14.523Z,55.75
2019-01-19T18:24:26.028Z,55.60
2019-01-19T18:27:49.606Z,55.40
2019-01-19T18:30:42.354Z,56.15
2019-01-19T18:33:35.795Z,55.67
2019-01-19T18:36:56.272Z,56.13
2019-01-19T18:40:25.496Z,55.97
2019-01-19T18:43:30.413Z,56.21
2019-01-19T18:46:41.607Z,56.31
2019-01-19T18:49:41.307Z,56.01
2019-01-19T18:52:23.114Z,56.11
2019-01-19T18:55:25.876Z,56.02
2019-01-19T18:58:37.592Z,56.17
2019-01-19T19:01:53.251Z,56.15
2019-01-19T19:05:09.513Z,56.34
2019-01-19T19:08:18.234Z,56.22
2019-01-19T19:11:24.563Z,56.59
2019-01-19T19:14:06.740Z,57.06
2019-01-19T19:17:22.470Z,57.35
2019-01-19T19:20:27.243Z,57.77
2019-01-19T19:23:37.365Z,57.64
2019-01-19T19:27:03.551Z,57.62
2019-01-19T19:29:55.787Z,57.79
2019-01-19T19:32:55.334Z,57.80
2019-01-19T19:36:19.496Z,57.74
2019-01-19T19:39:35.848Z,57.90
2019-01-19T19:42:34.741Z,57.65
2019-01-19T19:45:40.534Z,58.04
2019-01-19T19:49:09.887Z,57.77
2019-01-19T19:52:00.642Z,57.84
2019-01-19T19:54:33.541Z,58.08
2019-01-19T19:57:04.475Z,57.70
2019-01-19T19:59:34.804Z,57.35
2019-01-19T20:02:05.169Z,57.86
2019-01-19T20:04:35.483Z,57.94
2019-01-19T20:07:06.472Z,57.76
2019-01-19T20:09:37.000Z,57.74
2019-01-19T20:12:08.395Z,57.93
2019-01-19T20:14:38.759Z,58.30
2019-01-19T20:17:09.471Z,57.97
2019-01-19T20:19:39.935Z,58.15
2019-01-19T20:22:10.245Z,58.20
2019-01-19T20:24:40.579Z,58.46
2019-01-19T20:27:10.966Z,58.41
2019-01-19T20:29:41.376Z,58.66
2019-01-19T20:32:11.661Z,58.80
2019-01-19T20:34:42.037Z,58.53
2019-01-19T20:37:12.347Z,58.60
2019-01-19T20:39:42.842Z,58.65
2019-01-19T20:42:13.329Z,58.81
2019-01-19T20:44:43.663Z,58.58
2019-01-19T20:47:14.030Z,58.59
2019-01-19T20:49:44.398Z,58.56
2019-01-19T20:52:14.739Z,58.81
2019-01-19T20:54:45.320Z,58.93
2019-01-19T20:57:15.763Z,58.77
2019-01-19T20:59:46.227Z,58.57
2019-01-19T21:02:16.532Z,58.62
2019-01-19T21:04:46.876Z,58.96
2019-01-19T21:07:17.210Z,59.01
2019-01-19T21:09:47.578Z,58.81
2019-01-19T21:12:17.938Z,58.53
2019-01-19T21:14:48.253Z,58.41
2019-01-19T21:17:18.615Z,58.16
2019-01-19T21:19:49.019Z,58.41
2019-01-19T21:22:19.478Z,58.16
2019-01-19T21:24:49.813Z,58.38
2019-01-19T21:27:20.277Z,58.32
2019-01-19T21:29:50.634Z,58.17
2019-01-19T21:32:22.150Z,58.51
2019-01-19T21:34:52.488Z,58.14
2019-01-19T21:37:22.833Z,58.10
2019-01-19T21:39:53.149Z,58.29
2019-01-19T21:42:23.526Z,58.42
2019-01-19T21:44:53.926Z,58.74
2019-01-19T21:47:24.289Z,58.84
2019-01-19T21:49:54.624Z,59.29
2019-01-19T21:52:24.938Z,59.45
2019-01-19T21:54:55.370Z,59.09
2019-01-19T21:57:25.653Z,59.27
2019-01-19T21:59:55.988Z,59.05
2019-01-19T22:02:26.319Z,59.07
2019-01-19T22:04:56.669Z,59.15
2019-01-19T22:07:27.038Z,58.75
2019-01-19T22:09:57.370Z,58.58
2019-01-19T22:12:27.769Z,58.63
2019-01-19T22:14:58.110Z,58.67
2019-01-19T22:17:28.448Z,58.84
2019-01-19T22:19:58.781Z,58.80
2019-01-19T22:22:29.204Z,58.74
2019-01-19T22:24:59.632Z,58.73
2019-01-19T22:27:30.325Z,58.73
2019-01-19T22:30:00.643Z,58.89
2019-01-19T22:32:31.075Z,58.99
2019-01-19T22:35:01.358Z,59.06
2019-01-19T22:37:31.741Z,59.11
2019-01-19T22:40:02.076Z,59.05
2019-01-19T22:42:32.480Z,59.12
2019-01-19T22:45:02.841Z,58.96
2019-01-19T22:47:35.607Z,58.98
2019-01-19T22:50:09.207Z,58.92
2019-01-19T22:52:39.625Z,59.11
2019-01-19T22:55:10.680Z,59.53
2019-01-19T22:57:41.351Z,59.49
2019-01-19T23:01:11.118Z,59.36
2019-01-19T23:03:41.931Z,59.14
2019-01-19T23:06:12.293Z,59.01
2019-01-19T23:08:42.647Z,58.95
2019-01-19T23:11:13.060Z,59.22
2019-01-19T23:13:43.366Z,59.24
2019-01-19T23:16:13.677Z,59.23
2019-01-19T23:18:43.967Z,59.06
2019-01-19T23:21:14.310Z,58.55
2019-01-19T23:23:44.586Z,58.46
2019-01-19T23:26:15.221Z,58.28
2019-01-19T23:28:45.511Z,58.28
2019-01-19T23:31:15.792Z,58.34
2019-01-19T23:33:46.094Z,58.21
2019-01-19T23:36:16.367Z,58.01
2019-01-19T23:38:48.059Z,57.96
2019-01-19T23:41:18.441Z,57.96
2019-01-19T23:43:48.759Z,58.12
2019-01-19T23:46:19.030Z,57.85
2019-01-19T23:48:49.333Z,57.96
2019-01-19T23:51:19.668Z,58.04
2019-01-19T23:53:49.938Z,58.41
2019-01-19T23:56:20.336Z,58.41
2019-01-19T23:58:50.598Z,58.88
